sensor_id;sensor_type;location;lat;lon;timestamp;pressure;altitude;pressure_sealevel;temperature;humidity
61014;BME280;46899;47.542;19.082;2022-08-21T00:00:27;99860.12;;;19.09;100.00
61014;BME280;46899;47.542;19.082;2022-08-21T00:03:30;99863.09;;;19.05;100.00
61014;BME280;46899;47.542;19.082;2022-08-21T00:06:32;99868.75;;;19.00;100.00
61014;BME280;46899;47.542;19.082;2022-08-21T00:09:36;99870.97;;;18.94;100.00
61014;BME280;46899;47.542;19.082;2022-08-21T00:12:39;99864.63;;;18.96;100.00
61014;BME280;46899;47.542;19.082;2022-08-21T00:15:42;99856.50;;;18.99;100.00
61014;BME280;46899;47.542;19.082;2022-08-21T00:18:45;99847.50;;;18.91;100.00
61014;BME280;46899;47.542;19.082;2022-08-21T00:21:48;99848.81;;;18.85;100.00
61014;BME280;46899;47.542;19.082;2022-08-21T00:24:50;99837.31;;;18.86;100.00
61014;BME280;46899;47.542;19.082;2022-08-21T00:27:54;99846.66;;;18.79;100.00
61014;BME280;46899;47.542;19.082;2022-08-21T00:30:56;99849.03;;;18.82;100.00
61014;BME280;46899;47.542;19.082;2022-08-21T00:33:59;99845.69;;;18.80;100.00
61014;BME280;46899;47.542;19.082;2022-08-21T00:37:02;99846.75;;;18.78;100.00
61014;BME280;46899;47.542;19.082;2022-08-21T00:40:08;99840.91;;;18.74;100.00
61014;BME280;46899;47.542;19.082;2022-08-21T00:43:13;99852.50;;;18.72;100.00
61014;BME280;46899;47.542;19.082;2022-08-21T00:46:16;99856.94;;;18.71;100.00
61014;BME280;46899;47.542;19.082;2022-08-21T00:49:19;99852.97;;;18.66;100.00
61014;BME280;46899;47.542;19.082;2022-08-21T00:52:23;99851.41;;;18.63;100.00
61014;BME280;46899;47.542;19.082;2022-08-21T00:55:27;99857.88;;;18.59;100.00
61014;BME280;46899;47.542;19.082;2022-08-21T00:58:33;99859.78;;;18.57;100.00
61014;BME280;46899;47.542;19.082;2022-08-21T01:01:38;99862.41;;;18.57;100.00
61014;BME280;46899;47.542;19.082;2022-08-21T01:04:41;99849.59;;;18.53;100.00
61014;BME280;46899;47.542;19.082;2022-08-21T01:07:44;99852.34;;;18.51;100.00
61014;BME280;46899;47.542;19.082;2022-08-21T01:10:47;99851.50;;;18.51;100.00
61014;BME280;46899;47.542;19.082;2022-08-21T01:13:59;99854.00;;;18.52;100.00
61014;BME280;46899;47.542;19.082;2022-08-21T01:17:03;99851.72;;;18.48;100.00
61014;BME280;46899;47.542;19.082;2022-08-21T01:20:07;99855.41;;;18.45;100.00
61014;BME280;46899;47.542;19.082;2022-08-21T01:23:10;99857.31;;;18.43;100.00
61014;BME280;46899;47.542;19.082;2022-08-21T01:26:13;99845.75;;;18.46;100.00
61014;BME280;46899;47.542;19.082;2022-08-21T01:29:38;99845.75;;;18.46;100.00
61014;BME280;46899;47.542;19.082;2022-08-21T01:32:43;99842.34;;;18.43;100.00
61014;BME280;46899;47.542;19.082;2022-08-21T01:35:46;99842.97;;;18.47;100.00
61014;BME280;46899;47.542;19.082;2022-08-21T01:38:49;99839.50;;;18.47;100.00
61014;BME280;46899;47.542;19.082;2022-08-21T01:41:51;99838.75;;;18.44;100.00
61014;BME280;46899;47.542;19.082;2022-08-21T01:44:54;99840.87;;;18.39;100.00
61014;BME280;46899;47.542;19.082;2022-08-21T01:47:57;99840.06;;;18.39;100.00
61014;BME280;46899;47.542;19.082;2022-08-21T01:51:00;99834.78;;;18.39;100.00
61014;BME280;46899;47.542;19.082;2022-08-21T01:54:02;99835.75;;;18.38;100.00
61014;BME280;46899;47.542;19.082;2022-08-21T01:57:05;99836.72;;;18.37;100.00
61014;BME280;46899;47.542;19.082;2022-08-21T02:00:09;99835.75;;;18.38;100.00
61014;BME280;46899;47.542;19.082;2022-08-21T02:03:12;99839.66;;;18.32;100.00
61014;BME280;46899;47.542;19.082;2022-08-21T02:06:27;99846.50;;;18.35;100.00
61014;BME280;46899;47.542;19.082;2022-08-21T02:09:29;99845.78;;;18.33;100.00
61014;BME280;46899;47.542;19.082;2022-08-21T02:12:32;99848.91;;;18.38;100.00
61014;BME280;46899;47.542;19.082;2022-08-21T02:15:35;99848.06;;;18.37;100.00
61014;BME280;46899;47.542;19.082;2022-08-21T02:18:38;99848.78;;;18.39;100.00
61014;BME280;46899;47.542;19.082;2022-08-21T02:21:41;99840.28;;;18.36;100.00
61014;BME280;46899;47.542;19.082;2022-08-21T02:24:44;99841.97;;;18.37;100.00
61014;BME280;46899;47.542;19.082;2022-08-21T02:27:56;99839.78;;;18.31;100.00
61014;BME280;46899;47.542;19.082;2022-08-21T02:30:59;99836.22;;;18.32;100.00
61014;BME280;46899;47.542;19.082;2022-08-21T02:34:02;99836.94;;;18.34;100.00
61014;BME280;46899;47.542;19.082;2022-08-21T02:37:04;99838.84;;;18.32;100.00
61014;BME280;46899;47.542;19.082;2022-08-21T02:40:07;99835.81;;;18.25;100.00
61014;BME280;46899;47.542;19.082;2022-08-21T02:43:11;99830.53;;;18.25;100.00
61014;BME280;46899;47.542;19.082;2022-08-21T02:46:15;99830.78;;;18.22;100.00
61014;BME280;46899;47.542;19.082;2022-08-21T02:49:18;99823.41;;;18.27;100.00
61014;BME280;46899;47.542;19.082;2022-08-21T02:52:20;99819.28;;;18.23;100.00
61014;BME280;46899;47.542;19.082;2022-08-21T02:55:24;99816.78;;;18.22;100.00
61014;BME280;46899;47.542;19.082;2022-08-21T02:58:32;99827.91;;;18.25;100.00
61014;BME280;46899;47.542;19.082;2022-08-21T03:01:36;99829.22;;;18.20;100.00
61014;BME280;46899;47.542;19.082;2022-08-21T03:04:39;99826.59;;;18.20;100.00
61014;BME280;46899;47.542;19.082;2022-08-21T03:07:48;99818.06;;;18.16;100.00
61014;BME280;46899;47.542;19.082;2022-08-21T03:10:51;99825.25;;;18.14;100.00
61014;BME280;46899;47.542;19.082;2022-08-21T03:13:54;99822.38;;;18.17;100.00
61014;BME280;46899;47.542;19.082;2022-08-21T03:16:56;99818.69;;;18.20;100.00
61014;BME280;46899;47.542;19.082;2022-08-21T03:19:59;99820.34;;;18.21;100.00
61014;BME280;46899;47.542;19.082;2022-08-21T03:23:02;99827.31;;;18.22;100.00
61014;BME280;46899;47.542;19.082;2022-08-21T03:26:13;99832.59;;;18.22;100.00
61014;BME280;46899;47.542;19.082;2022-08-21T03:29:17;99825.63;;;18.21;100.00
61014;BME280;46899;47.542;19.082;2022-08-21T03:32:19;99829.72;;;18.25;100.00
61014;BME280;46899;47.542;19.082;2022-08-21T03:35:22;99827.31;;;18.22;100.00
61014;BME280;46899;47.542;19.082;2022-08-21T03:38:25;99830.44;;;18.27;100.00
61014;BME280;46899;47.542;19.082;2022-08-21T03:41:28;99831.28;;;18.27;100.00
61014;BME280;46899;47.542;19.082;2022-08-21T03:44:30;99827.81;;;18.27;100.00
61014;BME280;46899;47.542;19.082;2022-08-21T03:47:33;99837.16;;;18.31;100.00
61014;BME280;46899;47.542;19.082;2022-08-21T03:50:37;99828.31;;;18.32;100.00
61014;BME280;46899;47.542;19.082;2022-08-21T03:53:42;99832.00;;;18.29;100.00
61014;BME280;46899;47.542;19.082;2022-08-21T03:56:45;99830.09;;;18.31;100.00
61014;BME280;46899;47.542;19.082;2022-08-21T03:59:47;99829.97;;;18.33;100.00
61014;BME280;46899;47.542;19.082;2022-08-21T04:02:50;99831.88;;;18.31;100.00
61014;BME280;46899;47.542;19.082;2022-08-21T04:05:53;99842.91;;;18.36;100.00
61014;BME280;46899;47.542;19.082;2022-08-21T04:08:55;99847.00;;;18.40;100.00
61014;BME280;46899;47.542;19.082;2022-08-21T04:11:58;99852.53;;;18.37;100.00
61014;BME280;46899;47.542;19.082;2022-08-21T04:15:01;99852.75;;;18.45;100.00
61014;BME280;46899;47.542;19.082;2022-08-21T04:18:06;99852.75;;;18.45;100.00
61014;BME280;46899;47.542;19.082;2022-08-21T04:21:10;99856.28;;;18.46;100.00
61014;BME280;46899;47.542;19.082;2022-08-21T04:24:14;99857.63;;;18.51;100.00
61014;BME280;46899;47.542;19.082;2022-08-21T04:27:17;99865.66;;;18.61;100.00
61014;BME280;46899;47.542;19.082;2022-08-21T04:30:19;99864.56;;;18.63;100.00
61014;BME280;46899;47.542;19.082;2022-08-21T04:33:29;99869.84;;;18.63;100.00
61014;BME280;46899;47.542;19.082;2022-08-21T04:36:32;99874.31;;;18.63;100.00
61014;BME280;46899;47.542;19.082;2022-08-21T04:39:35;99872.25;;;18.66;100.00
61014;BME280;46899;47.542;19.082;2022-08-21T04:42:42;99871.91;;;18.71;100.00
61014;BME280;46899;47.542;19.082;2022-08-21T04:45:46;99867.12;;;18.65;100.00
61014;BME280;46899;47.542;19.082;2022-08-21T04:48:50;99868.78;;;18.66;100.00
61014;BME280;46899;47.542;19.082;2022-08-21T04:51:52;99880.78;;;18.70;100.00
61014;BME280;46899;47.542;19.082;2022-08-21T04:54:55;99871.81;;;18.72;100.00
61014;BME280;46899;47.542;19.082;2022-08-21T04:57:57;99870.13;;;18.82;100.00
61014;BME280;46899;47.542;19.082;2022-08-21T05:01:01;99872.66;;;18.84;100.00
61014;BME280;46899;47.542;19.082;2022-08-21T05:04:04;99877.59;;;18.88;100.00
61014;BME280;46899;47.542;19.082;2022-08-21T05:07:10;99882.88;;;18.88;100.00
61014;BME280;46899;47.542;19.082;2022-08-21T05:10:14;99881.19;;;18.98;100.00
61014;BME280;46899;47.542;19.082;2022-08-21T05:13:17;99875.44;;;19.04;100.00
61014;BME280;46899;47.542;19.082;2022-08-21T05:16:19;99881.31;;;18.97;100.00
61014;BME280;46899;47.542;19.082;2022-08-21T05:19:39;99880.22;;;18.99;100.00
61014;BME280;46899;47.542;19.082;2022-08-21T05:22:42;99880.38;;;18.98;100.00
61014;BME280;46899;47.542;19.082;2022-08-21T05:25:44;99879.50;;;18.97;100.00
61014;BME280;46899;47.542;19.082;2022-08-21T05:28:47;99877.09;;;18.94;100.00
61014;BME280;46899;47.542;19.082;2022-08-21T05:31:49;99878.53;;;18.98;100.00
61014;BME280;46899;47.542;19.082;2022-08-21T05:34:52;99875.69;;;19.01;100.00
61014;BME280;46899;47.542;19.082;2022-08-21T05:37:55;99876.38;;;19.03;100.00
61014;BME280;46899;47.542;19.082;2022-08-21T05:40:57;99880.22;;;19.10;100.00
61014;BME280;46899;47.542;19.082;2022-08-21T05:44:00;99880.72;;;19.16;100.00
61014;BME280;46899;47.542;19.082;2022-08-21T05:47:07;99875.69;;;19.24;100.00
61014;BME280;46899;47.542;19.082;2022-08-21T05:50:10;99882.62;;;19.25;100.00
61014;BME280;46899;47.542;19.082;2022-08-21T05:53:13;99871.63;;;19.31;100.00
61014;BME280;46899;47.542;19.082;2022-08-21T05:56:16;99873.19;;;19.33;100.00
61014;BME280;46899;47.542;19.082;2022-08-21T05:59:19;99878.34;;;19.46;100.00
61014;BME280;46899;47.542;19.082;2022-08-21T06:02:22;99883.16;;;19.52;100.00
61014;BME280;46899;47.542;19.082;2022-08-21T06:05:24;99889.72;;;19.57;100.00
61014;BME280;46899;47.542;19.082;2022-08-21T06:08:38;99881.44;;;19.62;100.00
61014;BME280;46899;47.542;19.082;2022-08-21T06:11:41;99890.38;;;19.50;100.00
61014;BME280;46899;47.542;19.082;2022-08-21T06:14:44;99886.87;;;19.49;100.00
61014;BME280;46899;47.542;19.082;2022-08-21T06:17:46;99884.22;;;19.60;100.00
61014;BME280;46899;47.542;19.082;2022-08-21T06:20:49;99885.09;;;19.50;100.00
61014;BME280;46899;47.542;19.082;2022-08-21T06:23:51;99879.44;;;19.43;100.00
61014;BME280;46899;47.542;19.082;2022-08-21T06:26:54;99887.94;;;19.58;100.00
61014;BME280;46899;47.542;19.082;2022-08-21T06:29:57;99888.38;;;19.74;100.00
61014;BME280;46899;47.542;19.082;2022-08-21T06:32:59;99890.06;;;19.86;100.00
61014;BME280;46899;47.542;19.082;2022-08-21T06:36:02;99898.91;;;19.96;100.00
61014;BME280;46899;47.542;19.082;2022-08-21T06:39:05;99899.34;;;20.12;100.00
61014;BME280;46899;47.542;19.082;2022-08-21T06:42:26;99902.69;;;20.14;100.00
61014;BME280;46899;47.542;19.082;2022-08-21T06:45:30;99907.50;;;20.09;100.00
61014;BME280;46899;47.542;19.082;2022-08-21T06:48:33;99907.34;;;20.33;100.00
61014;BME280;46899;47.542;19.082;2022-08-21T06:51:36;99907.19;;;20.45;100.00
61014;BME280;46899;47.542;19.082;2022-08-21T06:54:39;99910.56;;;20.68;100.00
61014;BME280;46899;47.542;19.082;2022-08-21T06:57:41;99908.81;;;20.78;98.40
61014;BME280;46899;47.542;19.082;2022-08-21T07:00:53;99910.75;;;20.97;99.30
61014;BME280;46899;47.542;19.082;2022-08-21T07:04:01;99908.56;;;21.02;95.67
61014;BME280;46899;47.542;19.082;2022-08-21T07:07:04;99901.22;;;20.85;97.79
61014;BME280;46899;47.542;19.082;2022-08-21T07:10:07;99897.34;;;21.09;98.51
61014;BME280;46899;47.542;19.082;2022-08-21T07:13:22;99896.66;;;21.07;95.67
61014;BME280;46899;47.542;19.082;2022-08-21T07:16:25;99898.62;;;21.15;96.82
61014;BME280;46899;47.542;19.082;2022-08-21T07:19:28;99900.41;;;21.35;95.77
61014;BME280;46899;47.542;19.082;2022-08-21T07:22:30;99902.34;;;21.33;95.44
61014;BME280;46899;47.542;19.082;2022-08-21T07:25:33;99900.97;;;21.39;94.07
61014;BME280;46899;47.542;19.082;2022-08-21T07:28:35;99903.88;;;21.66;94.15
61014;BME280;46899;47.542;19.082;2022-08-21T07:31:38;99904.28;;;22.01;92.27
61014;BME280;46899;47.542;19.082;2022-08-21T07:34:41;99904.53;;;21.98;89.69
61014;BME280;46899;47.542;19.082;2022-08-21T07:37:44;99909.72;;;22.00;90.38
61014;BME280;46899;47.542;19.082;2022-08-21T07:40:46;99907.38;;;22.16;89.45
61014;BME280;46899;47.542;19.082;2022-08-21T07:43:50;99903.72;;;22.17;88.71
61014;BME280;46899;47.542;19.082;2022-08-21T07:46:54;99909.31;;;22.42;88.13
61014;BME280;46899;47.542;19.082;2022-08-21T07:49:56;99895.78;;;22.93;84.80
61014;BME280;46899;47.542;19.082;2022-08-21T07:52:59;99893.00;;;23.32;81.84
61014;BME280;46899;47.542;19.082;2022-08-21T07:56:02;99892.56;;;23.91;80.25
61014;BME280;46899;47.542;19.082;2022-08-21T07:59:06;99893.72;;;24.68;73.50
61014;BME280;46899;47.542;19.082;2022-08-21T08:02:09;99884.56;;;25.14;71.29
61014;BME280;46899;47.542;19.082;2022-08-21T08:05:11;99887.41;;;26.86;65.30
61014;BME280;46899;47.542;19.082;2022-08-21T08:08:14;99876.50;;;27.04;63.08
61014;BME280;46899;47.542;19.082;2022-08-21T08:11:17;99883.53;;;26.65;65.10
61014;BME280;46899;47.542;19.082;2022-08-21T08:14:19;99871.47;;;27.09;62.86
61014;BME280;46899;47.542;19.082;2022-08-21T08:17:32;99869.59;;;25.47;68.79
61014;BME280;46899;47.542;19.082;2022-08-21T08:20:35;99864.31;;;25.63;68.41
61014;BME280;46899;47.542;19.082;2022-08-21T08:23:38;99857.44;;;25.44;69.06
61014;BME280;46899;47.542;19.082;2022-08-21T08:26:40;99859.28;;;25.52;68.57
61014;BME280;46899;47.542;19.082;2022-08-21T08:29:43;99856.22;;;25.05;69.88
61014;BME280;46899;47.542;19.082;2022-08-21T08:32:46;99852.62;;;25.48;69.67
61014;BME280;46899;47.542;19.082;2022-08-21T08:35:52;99855.59;;;25.45;69.17
61014;BME280;46899;47.542;19.082;2022-08-21T08:38:54;99857.53;;;25.01;71.15
61014;BME280;46899;47.542;19.082;2022-08-21T08:41:59;99857.03;;;25.31;70.59
61014;BME280;46899;47.542;19.082;2022-08-21T08:45:25;99864.63;;;26.10;67.13
61014;BME280;46899;47.542;19.082;2022-08-21T08:48:46;99856.00;;;26.32;65.82
61014;BME280;46899;47.542;19.082;2022-08-21T08:51:59;99857.50;;;26.34;64.40
61014;BME280;46899;47.542;19.082;2022-08-21T08:55:04;99855.22;;;25.73;68.97
61014;BME280;46899;47.542;19.082;2022-08-21T08:58:20;99859.59;;;25.99;67.64
61014;BME280;46899;47.542;19.082;2022-08-21T09:01:24;99857.25;;;25.96;66.68
61014;BME280;46899;47.542;19.082;2022-08-21T09:04:29;99854.53;;;25.71;69.03
61014;BME280;46899;47.542;19.082;2022-08-21T09:14:14;99861.47;;;25.48;68.59
61014;BME280;46899;47.542;19.082;2022-08-21T09:20:31;99854.31;;;25.57;67.36
61014;BME280;46899;47.542;19.082;2022-08-21T09:30:31;99858.22;;;25.87;67.14
61014;BME280;46899;47.542;19.082;2022-08-21T09:33:34;99866.66;;;26.24;65.86
61014;BME280;46899;47.542;19.082;2022-08-21T09:36:47;99859.34;;;26.34;66.33
61014;BME280;46899;47.542;19.082;2022-08-21T09:39:51;99849.56;;;27.30;61.87
61014;BME280;46899;47.542;19.082;2022-08-21T09:42:55;99855.63;;;27.93;60.60
61014;BME280;46899;47.542;19.082;2022-08-21T09:46:07;99851.28;;;27.61;60.71
61014;BME280;46899;47.542;19.082;2022-08-21T09:49:12;99849.03;;;27.34;60.65
61014;BME280;46899;47.542;19.082;2022-08-21T09:52:28;99854.47;;;27.02;62.79
61014;BME280;46899;47.542;19.082;2022-08-21T09:55:32;99839.28;;;27.10;63.07
61014;BME280;46899;47.542;19.082;2022-08-21T09:58:53;99850.22;;;27.40;61.84
61014;BME280;46899;47.542;19.082;2022-08-21T10:01:56;99849.16;;;26.94;64.64
61014;BME280;46899;47.542;19.082;2022-08-21T10:05:01;99847.25;;;27.19;62.57
61014;BME280;46899;47.542;19.082;2022-08-21T10:08:04;99842.13;;;27.01;63.42
61014;BME280;46899;47.542;19.082;2022-08-21T10:11:10;99843.31;;;26.90;63.82
61014;BME280;46899;47.542;19.082;2022-08-21T10:14:24;99845.53;;;27.72;60.02
61014;BME280;46899;47.542;19.082;2022-08-21T10:17:37;99844.59;;;28.41;58.66
61014;BME280;46899;47.542;19.082;2022-08-21T10:20:52;99851.38;;;28.52;57.23
61014;BME280;46899;47.542;19.082;2022-08-21T10:27:44;99850.44;;;28.22;58.30
61014;BME280;46899;47.542;19.082;2022-08-21T10:30:53;99841.94;;;27.02;62.08
61014;BME280;46899;47.542;19.082;2022-08-21T10:34:06;99848.59;;;27.06;63.58
61014;BME280;46899;47.542;19.082;2022-08-21T10:37:16;99849.16;;;27.49;62.53
61014;BME280;46899;47.542;19.082;2022-08-21T10:40:25;99838.31;;;28.12;59.81
61014;BME280;46899;47.542;19.082;2022-08-21T10:49:39;99841.66;;;28.14;58.30
61014;BME280;46899;47.542;19.082;2022-08-21T10:59:20;99838.88;;;27.68;60.55
61014;BME280;46899;47.542;19.082;2022-08-21T11:02:27;99841.66;;;26.89;62.25
61014;BME280;46899;47.542;19.082;2022-08-21T11:08:55;99835.97;;;25.54;68.78
61014;BME280;46899;47.542;19.082;2022-08-21T11:12:35;99839.59;;;25.11;71.98
61014;BME280;46899;47.542;19.082;2022-08-21T11:18:37;99827.19;;;24.94;71.74
61014;BME280;46899;47.542;19.082;2022-08-21T11:21:46;99824.94;;;25.07;71.78
61014;BME280;46899;47.542;19.082;2022-08-21T11:28:08;99829.16;;;24.92;73.03
61014;BME280;46899;47.542;19.082;2022-08-21T11:37:38;99825.87;;;24.55;74.08
61014;BME280;46899;47.542;19.082;2022-08-21T11:40:51;99812.97;;;24.60;74.84
61014;BME280;46899;47.542;19.082;2022-08-21T11:47:19;99821.75;;;25.03;73.04
61014;BME280;46899;47.542;19.082;2022-08-21T11:50:27;99821.22;;;25.00;73.19
61014;BME280;46899;47.542;19.082;2022-08-21T11:53:39;99824.41;;;25.37;71.76
61014;BME280;46899;47.542;19.082;2022-08-21T11:56:45;99814.41;;;25.89;68.99
61014;BME280;46899;47.542;19.082;2022-08-21T11:59:57;99810.78;;;26.06;67.53
61014;BME280;46899;47.542;19.082;2022-08-21T12:03:08;99800.97;;;26.23;67.06
61014;BME280;46899;47.542;19.082;2022-08-21T12:06:12;99807.09;;;25.91;67.97
61014;BME280;46899;47.542;19.082;2022-08-21T12:12:30;99799.75;;;25.35;69.62
61014;BME280;46899;47.542;19.082;2022-08-21T12:15:33;99799.69;;;25.19;72.31
61014;BME280;46899;47.542;19.082;2022-08-21T12:18:35;99798.34;;;25.15;73.00
61014;BME280;46899;47.542;19.082;2022-08-21T12:21:48;99794.97;;;25.05;73.48
61014;BME280;46899;47.542;19.082;2022-08-21T12:24:51;99793.09;;;25.31;71.85
61014;BME280;46899;47.542;19.082;2022-08-21T12:28:09;99788.25;;;25.27;72.01
61014;BME280;46899;47.542;19.082;2022-08-21T12:31:20;99785.53;;;25.10;73.70
61014;BME280;46899;47.542;19.082;2022-08-21T12:34:25;99786.00;;;24.80;73.92
61014;BME280;46899;47.542;19.082;2022-08-21T12:37:36;99786.16;;;24.53;75.94
61014;BME280;46899;47.542;19.082;2022-08-21T12:40:43;99777.19;;;24.54;76.71
61014;BME280;46899;47.542;19.082;2022-08-21T12:43:57;99779.63;;;24.47;75.72
61014;BME280;46899;47.542;19.082;2022-08-21T12:47:03;99777.75;;;24.40;76.65
61014;BME280;46899;47.542;19.082;2022-08-21T12:50:11;99774.47;;;24.46;76.79
61014;BME280;46899;47.542;19.082;2022-08-21T12:56:23;99768.19;;;24.55;75.58
61014;BME280;46899;47.542;19.082;2022-08-21T12:59:26;99759.28;;;24.38;75.49
61014;BME280;46899;47.542;19.082;2022-08-21T13:02:30;99759.56;;;24.35;76.21
61014;BME280;46899;47.542;19.082;2022-08-21T13:05:34;99760.97;;;24.39;76.88
61014;BME280;46899;47.542;19.082;2022-08-21T13:08:37;99759.84;;;24.24;77.91
61014;BME280;46899;47.542;19.082;2022-08-21T13:11:47;99764.94;;;24.18;78.00
61014;BME280;46899;47.542;19.082;2022-08-21T13:14:51;99755.16;;;24.18;78.15
61014;BME280;46899;47.542;19.082;2022-08-21T13:17:54;99749.50;;;24.21;77.85
61014;BME280;46899;47.542;19.082;2022-08-21T13:21:05;99750.06;;;24.07;78.58
61014;BME280;46899;47.542;19.082;2022-08-21T13:24:21;99743.47;;;23.76;80.89
61014;BME280;46899;47.542;19.082;2022-08-21T13:27:55;99750.94;;;23.63;85.74
61014;BME280;46899;47.542;19.082;2022-08-21T13:31:06;99749.44;;;23.43;85.66
61014;BME280;46899;47.542;19.082;2022-08-21T13:34:10;99754.31;;;23.10;87.91
61014;BME280;46899;47.542;19.082;2022-08-21T13:37:13;99757.69;;;22.76;91.69
61014;BME280;46899;47.542;19.082;2022-08-21T13:40:18;99746.84;;;22.50;97.80
61014;BME280;46899;47.542;19.082;2022-08-21T13:43:24;99756.97;;;22.18;100.00
61014;BME280;46899;47.542;19.082;2022-08-21T13:46:31;99748.63;;;21.94;100.00
61014;BME280;46899;47.542;19.082;2022-08-21T13:49:35;99750.13;;;21.67;100.00
61014;BME280;46899;47.542;19.082;2022-08-21T13:52:46;99750.53;;;21.72;100.00
61014;BME280;46899;47.542;19.082;2022-08-21T13:55:49;99744.72;;;21.69;100.00
61014;BME280;46899;47.542;19.082;2022-08-21T13:58:53;99752.50;;;21.61;100.00
61014;BME280;46899;47.542;19.082;2022-08-21T14:01:57;99757.09;;;21.59;100.00
61014;BME280;46899;47.542;19.082;2022-08-21T14:05:02;99750.00;;;21.59;100.00
61014;BME280;46899;47.542;19.082;2022-08-21T14:08:12;99758.06;;;21.77;100.00
61014;BME280;46899;47.542;19.082;2022-08-21T14:11:17;99758.09;;;21.87;100.00
61014;BME280;46899;47.542;19.082;2022-08-21T14:14:24;99762.44;;;22.07;100.00
61014;BME280;46899;47.542;19.082;2022-08-21T14:17:32;99752.53;;;22.09;98.62
61014;BME280;46899;47.542;19.082;2022-08-21T14:20:35;99749.25;;;22.43;98.45
61014;BME280;46899;47.542;19.082;2022-08-21T14:23:38;99749.25;;;22.63;95.37
61014;BME280;46899;47.542;19.082;2022-08-21T14:26:50;99748.53;;;22.61;95.37
61014;BME280;46899;47.542;19.082;2022-08-21T14:29:57;99748.69;;;22.40;95.76
61014;BME280;46899;47.542;19.082;2022-08-21T14:33:01;99747.94;;;22.57;95.36
61014;BME280;46899;47.542;19.082;2022-08-21T14:36:04;99746.44;;;22.64;94.29
61014;BME280;46899;47.542;19.082;2022-08-21T14:39:06;99751.41;;;22.77;92.50
61014;BME280;46899;47.542;19.082;2022-08-21T14:42:10;99758.13;;;22.71;92.68
61014;BME280;46899;47.542;19.082;2022-08-21T14:45:14;99757.16;;;22.72;93.10
61014;BME280;46899;47.542;19.082;2022-08-21T14:48:17;99758.03;;;22.63;92.42
61014;BME280;46899;47.542;19.082;2022-08-21T14:51:20;99755.22;;;22.55;93.42
61014;BME280;46899;47.542;19.082;2022-08-21T14:54:26;99756.19;;;22.54;94.17
61014;BME280;46899;47.542;19.082;2022-08-21T14:57:33;99746.81;;;22.60;92.42
61014;BME280;46899;47.542;19.082;2022-08-21T15:00:35;99748.28;;;22.44;92.15
61014;BME280;46899;47.542;19.082;2022-08-21T15:03:38;99747.03;;;22.39;93.44
61014;BME280;46899;47.542;19.082;2022-08-21T15:06:41;99745.66;;;22.35;94.34
61014;BME280;46899;47.542;19.082;2022-08-21T15:09:43;99745.94;;;22.22;98.51
61014;BME280;46899;47.542;19.082;2022-08-21T15:12:46;99748.47;;;22.05;99.58
61014;BME280;46899;47.542;19.082;2022-08-21T15:15:49;99746.53;;;22.07;100.00
61014;BME280;46899;47.542;19.082;2022-08-21T15:18:55;99750.56;;;22.11;100.00
61014;BME280;46899;47.542;19.082;2022-08-21T15:21:58;99738.69;;;22.15;100.00
61014;BME280;46899;47.542;19.082;2022-08-21T15:25:00;99746.38;;;22.08;99.91
61014;BME280;46899;47.542;19.082;2022-08-21T15:28:03;99748.09;;;21.90;100.00
61014;BME280;46899;47.542;19.082;2022-08-21T15:31:06;99746.66;;;21.86;100.00
61014;BME280;46899;47.542;19.082;2022-08-21T15:34:09;99742.22;;;21.87;100.00
61014;BME280;46899;47.542;19.082;2022-08-21T15:37:11;99738.03;;;21.84;100.00
61014;BME280;46899;47.542;19.082;2022-08-21T15:40:14;99741.63;;;21.83;100.00
61014;BME280;46899;47.542;19.082;2022-08-21T15:46:32;99741.66;;;21.93;100.00
61014;BME280;46899;47.542;19.082;2022-08-21T15:49:35;99741.91;;;21.80;100.00
61014;BME280;46899;47.542;19.082;2022-08-21T15:52:37;99734.94;;;21.79;100.00
61014;BME280;46899;47.542;19.082;2022-08-21T15:55:40;99740.63;;;21.55;100.00
61014;BME280;46899;47.542;19.082;2022-08-21T15:58:43;99746.28;;;21.22;100.00
61014;BME280;46899;47.542;19.082;2022-08-21T16:01:46;99748.09;;;21.12;100.00
61014;BME280;46899;47.542;19.082;2022-08-21T16:04:49;99756.03;;;21.12;100.00
61014;BME280;46899;47.542;19.082;2022-08-21T16:07:52;99757.63;;;21.03;100.00
61014;BME280;46899;47.542;19.082;2022-08-21T16:10:55;99759.22;;;20.85;100.00
61014;BME280;46899;47.542;19.082;2022-08-21T16:13:57;99755.84;;;20.74;100.00
61014;BME280;46899;47.542;19.082;2022-08-21T16:17:00;99758.47;;;20.74;100.00
61014;BME280;46899;47.542;19.082;2022-08-21T16:20:03;99752.59;;;20.61;100.00
61014;BME280;46899;47.542;19.082;2022-08-21T16:23:07;99756.78;;;20.42;100.00
61014;BME280;46899;47.542;19.082;2022-08-21T16:26:11;99759.94;;;20.16;100.00
61014;BME280;46899;47.542;19.082;2022-08-21T16:29:20;99760.88;;;19.94;100.00
61014;BME280;46899;47.542;19.082;2022-08-21T16:32:23;99758.72;;;19.88;100.00
61014;BME280;46899;47.542;19.082;2022-08-21T16:35:30;99759.00;;;19.85;100.00
61014;BME280;46899;47.542;19.082;2022-08-21T16:38:33;99758.78;;;19.77;100.00
61014;BME280;46899;47.542;19.082;2022-08-21T16:41:39;99752.09;;;19.73;100.00
61014;BME280;46899;47.542;19.082;2022-08-21T16:44:42;99760.62;;;19.65;100.00
61014;BME280;46899;47.542;19.082;2022-08-21T16:47:50;99751.66;;;19.57;100.00
61014;BME280;46899;47.542;19.082;2022-08-21T16:50:52;99770.75;;;19.49;100.00
61014;BME280;46899;47.542;19.082;2022-08-21T16:53:55;99758.66;;;19.47;100.00
61014;BME280;46899;47.542;19.082;2022-08-21T16:56:57;99749.87;;;19.35;100.00
61014;BME280;46899;47.542;19.082;2022-08-21T17:00:03;99756.97;;;19.35;100.00
61014;BME280;46899;47.542;19.082;2022-08-21T17:03:06;99756.97;;;19.35;100.00